Kinderhook, Illinois
Current Conditions -  °F | °C
As of 11:35 AM on Friday 31 Oct 2014 (Local Time) from KHAE Reporting Station
Clear Clear  
Wind Chill: 34°   Ceiling: Unl
Heat Index: 41°   Visibility: 10mi
Dew Point: 19°   Wind: 13mph
Humidity: 42%   Direction: 340°NNW
Pressure: 30.38"   Gusts: 18mph
Location:  39.7°N, 91.15°W
Report Text: KHAE 311635Z AUTO 34011G16KT 10SM CLR 05/M07 A3038 RMK AO2
Loading
Personal Weather Stations






























Interactive Weather Map
Tropical Storm Tracking
New forecast layout! Learn more

10-Day Weather Forecast

Advertisements
Track Severe Weather on mobile